sensor_id;sensor_type;location;lat;lon;timestamp;P1;durP1;ratioP1;P2;durP2;ratioP2
36663;SDS011;53333;51.976;20.144;2023-04-06T00:01:03;31.93;;;16.20;;
36663;SDS011;53333;51.976;20.144;2023-04-06T00:03:36;36.03;;;16.80;;
36663;SDS011;53333;51.976;20.144;2023-04-06T00:06:09;43.45;;;20.23;;
36663;SDS011;53333;51.976;20.144;2023-04-06T00:08:42;36.97;;;18.93;;
36663;SDS011;53333;51.976;20.144;2023-04-06T00:11:17;45.10;;;21.25;;
36663;SDS011;53333;51.976;20.144;2023-04-06T00:13:52;43.53;;;20.33;;
36663;SDS011;53333;51.976;20.144;2023-04-06T00:16:25;42.88;;;20.48;;
36663;SDS011;53333;51.976;20.144;2023-04-06T00:19:00;48.13;;;22.35;;
36663;SDS011;53333;51.976;20.144;2023-04-06T00:21:33;47.13;;;21.83;;
36663;SDS011;53333;51.976;20.144;2023-04-06T00:24:07;58.90;;;23.92;;
36663;SDS011;53333;51.976;20.144;2023-04-06T00:26:41;51.83;;;24.13;;
36663;SDS011;53333;51.976;20.144;2023-04-06T00:29:14;62.60;;;23.75;;
36663;SDS011;53333;51.976;20.144;2023-04-06T00:31:47;53.15;;;23.08;;
36663;SDS011;53333;51.976;20.144;2023-04-06T00:34:21;55.53;;;22.95;;
36663;SDS011;53333;51.976;20.144;2023-04-06T00:36:54;50.70;;;23.73;;
36663;SDS011;53333;51.976;20.144;2023-04-06T00:39:27;48.57;;;22.10;;
36663;SDS011;53333;51.976;20.144;2023-04-06T00:42:01;50.53;;;22.25;;
36663;SDS011;53333;51.976;20.144;2023-04-06T00:44:43;50.30;;;21.27;;
36663;SDS011;53333;51.976;20.144;2023-04-06T00:47:16;53.50;;;23.67;;
36663;SDS011;53333;51.976;20.144;2023-04-06T00:49:49;61.42;;;24.55;;
36663;SDS011;53333;51.976;20.144;2023-04-06T00:52:22;49.00;;;23.17;;
36663;SDS011;53333;51.976;20.144;2023-04-06T00:54:58;49.47;;;21.88;;
36663;SDS011;53333;51.976;20.144;2023-04-06T00:57:33;50.38;;;22.55;;
36663;SDS011;53333;51.976;20.144;2023-04-06T01:00:07;46.25;;;21.17;;
36663;SDS011;53333;51.976;20.144;2023-04-06T01:02:41;43.80;;;22.17;;
36663;SDS011;53333;51.976;20.144;2023-04-06T01:05:14;47.97;;;21.67;;
36663;SDS011;53333;51.976;20.144;2023-04-06T01:07:57;50.55;;;22.10;;
36663;SDS011;53333;51.976;20.144;2023-04-06T01:10:32;46.08;;;21.88;;
36663;SDS011;53333;51.976;20.144;2023-04-06T01:13:17;43.83;;;20.20;;
36663;SDS011;53333;51.976;20.144;2023-04-06T01:15:59;46.53;;;21.50;;
36663;SDS011;53333;51.976;20.144;2023-04-06T01:18:46;45.42;;;22.80;;
36663;SDS011;53333;51.976;20.144;2023-04-06T01:21:32;49.95;;;24.20;;
36663;SDS011;53333;51.976;20.144;2023-04-06T01:24:22;55.13;;;23.30;;
36663;SDS011;53333;51.976;20.144;2023-04-06T01:27:16;48.15;;;23.00;;
36663;SDS011;53333;51.976;20.144;2023-04-06T01:29:55;49.75;;;23.67;;
36663;SDS011;53333;51.976;20.144;2023-04-06T01:32:46;48.13;;;24.60;;
36663;SDS011;53333;51.976;20.144;2023-04-06T01:35:26;45.28;;;22.65;;
36663;SDS011;53333;51.976;20.144;2023-04-06T01:38:14;50.65;;;23.98;;
36663;SDS011;53333;51.976;20.144;2023-04-06T01:40:50;45.88;;;23.30;;
36663;SDS011;53333;51.976;20.144;2023-04-06T01:43:25;47.75;;;23.42;;
36663;SDS011;53333;51.976;20.144;2023-04-06T01:46:17;49.30;;;22.45;;
36663;SDS011;53333;51.976;20.144;2023-04-06T01:48:50;51.55;;;23.00;;
36663;SDS011;53333;51.976;20.144;2023-04-06T01:51:35;47.30;;;24.38;;
36663;SDS011;53333;51.976;20.144;2023-04-06T01:54:11;48.05;;;23.95;;
36663;SDS011;53333;51.976;20.144;2023-04-06T01:57:03;45.97;;;22.88;;
36663;SDS011;53333;51.976;20.144;2023-04-06T01:59:47;48.42;;;23.92;;
36663;SDS011;53333;51.976;20.144;2023-04-06T02:02:28;46.50;;;23.33;;
36663;SDS011;53333;51.976;20.144;2023-04-06T02:05:06;51.50;;;24.55;;
36663;SDS011;53333;51.976;20.144;2023-04-06T02:07:40;53.03;;;24.38;;
36663;SDS011;53333;51.976;20.144;2023-04-06T02:10:17;56.53;;;25.42;;
36663;SDS011;53333;51.976;20.144;2023-04-06T02:12:51;48.75;;;25.30;;
36663;SDS011;53333;51.976;20.144;2023-04-06T02:15:29;51.80;;;23.60;;
36663;SDS011;53333;51.976;20.144;2023-04-06T02:18:02;50.42;;;24.35;;
36663;SDS011;53333;51.976;20.144;2023-04-06T02:20:36;51.33;;;24.20;;
36663;SDS011;53333;51.976;20.144;2023-04-06T02:23:08;46.05;;;23.73;;
36663;SDS011;53333;51.976;20.144;2023-04-06T02:25:41;51.28;;;25.85;;
36663;SDS011;53333;51.976;20.144;2023-04-06T02:28:17;46.35;;;24.27;;
36663;SDS011;53333;51.976;20.144;2023-04-06T02:30:50;55.58;;;25.27;;
36663;SDS011;53333;51.976;20.144;2023-04-06T02:33:27;48.03;;;24.45;;
36663;SDS011;53333;51.976;20.144;2023-04-06T02:36:00;48.28;;;25.20;;
36663;SDS011;53333;51.976;20.144;2023-04-06T02:38:33;56.20;;;26.20;;
36663;SDS011;53333;51.976;20.144;2023-04-06T02:41:07;57.22;;;25.77;;
36663;SDS011;53333;51.976;20.144;2023-04-06T02:43:42;45.85;;;24.52;;
36663;SDS011;53333;51.976;20.144;2023-04-06T02:46:23;50.13;;;24.70;;
36663;SDS011;53333;51.976;20.144;2023-04-06T02:48:56;53.20;;;25.37;;
36663;SDS011;53333;51.976;20.144;2023-04-06T02:51:34;54.45;;;26.10;;
36663;SDS011;53333;51.976;20.144;2023-04-06T02:54:27;57.30;;;26.65;;
36663;SDS011;53333;51.976;20.144;2023-04-06T02:57:00;56.55;;;26.10;;
36663;SDS011;53333;51.976;20.144;2023-04-06T02:59:44;52.63;;;26.92;;
36663;SDS011;53333;51.976;20.144;2023-04-06T03:02:22;55.35;;;27.17;;
36663;SDS011;53333;51.976;20.144;2023-04-06T03:04:58;58.88;;;27.30;;
36663;SDS011;53333;51.976;20.144;2023-04-06T03:07:37;60.40;;;27.67;;
36663;SDS011;53333;51.976;20.144;2023-04-06T03:10:14;60.90;;;28.48;;
36663;SDS011;53333;51.976;20.144;2023-04-06T03:12:49;52.97;;;27.40;;
36663;SDS011;53333;51.976;20.144;2023-04-06T03:15:42;54.13;;;26.40;;
36663;SDS011;53333;51.976;20.144;2023-04-06T03:18:20;59.35;;;26.83;;
36663;SDS011;53333;51.976;20.144;2023-04-06T03:20:56;54.88;;;26.15;;
36663;SDS011;53333;51.976;20.144;2023-04-06T03:23:37;53.22;;;25.85;;
36663;SDS011;53333;51.976;20.144;2023-04-06T03:26:10;54.72;;;27.90;;
36663;SDS011;53333;51.976;20.144;2023-04-06T03:28:43;58.93;;;28.60;;
36663;SDS011;53333;51.976;20.144;2023-04-06T03:31:18;56.42;;;26.23;;
36663;SDS011;53333;51.976;20.144;2023-04-06T03:34:02;57.70;;;27.35;;
36663;SDS011;53333;51.976;20.144;2023-04-06T03:36:37;62.60;;;28.33;;
36663;SDS011;53333;51.976;20.144;2023-04-06T03:39:10;52.20;;;26.85;;
36663;SDS011;53333;51.976;20.144;2023-04-06T03:41:46;55.72;;;27.55;;
36663;SDS011;53333;51.976;20.144;2023-04-06T03:44:33;57.00;;;25.65;;
36663;SDS011;53333;51.976;20.144;2023-04-06T03:47:09;57.63;;;27.45;;
36663;SDS011;53333;51.976;20.144;2023-04-06T03:49:42;57.20;;;29.05;;
36663;SDS011;53333;51.976;20.144;2023-04-06T03:52:16;57.50;;;26.92;;
36663;SDS011;53333;51.976;20.144;2023-04-06T03:54:50;59.33;;;27.70;;
36663;SDS011;53333;51.976;20.144;2023-04-06T03:57:23;50.90;;;25.30;;
36663;SDS011;53333;51.976;20.144;2023-04-06T03:59:56;52.97;;;25.98;;
36663;SDS011;53333;51.976;20.144;2023-04-06T04:02:31;49.13;;;26.95;;
36663;SDS011;53333;51.976;20.144;2023-04-06T04:05:04;46.58;;;24.00;;
36663;SDS011;53333;51.976;20.144;2023-04-06T04:07:38;44.03;;;24.50;;
36663;SDS011;53333;51.976;20.144;2023-04-06T04:10:13;46.55;;;24.35;;
36663;SDS011;53333;51.976;20.144;2023-04-06T04:12:46;52.57;;;25.67;;
36663;SDS011;53333;51.976;20.144;2023-04-06T04:15:19;49.00;;;24.90;;
36663;SDS011;53333;51.976;20.144;2023-04-06T04:17:53;46.22;;;23.00;;
36663;SDS011;53333;51.976;20.144;2023-04-06T04:20:26;49.15;;;23.40;;
36663;SDS011;53333;51.976;20.144;2023-04-06T04:22:59;43.58;;;22.95;;
36663;SDS011;53333;51.976;20.144;2023-04-06T04:25:35;44.35;;;23.05;;
36663;SDS011;53333;51.976;20.144;2023-04-06T04:28:08;43.63;;;24.20;;
36663;SDS011;53333;51.976;20.144;2023-04-06T04:30:43;41.78;;;20.63;;
36663;SDS011;53333;51.976;20.144;2023-04-06T04:35:53;49.55;;;21.33;;
36663;SDS011;53333;51.976;20.144;2023-04-06T04:38:29;40.10;;;22.27;;
36663;SDS011;53333;51.976;20.144;2023-04-06T04:41:02;45.47;;;22.13;;
36663;SDS011;53333;51.976;20.144;2023-04-06T04:43:34;47.75;;;22.65;;
36663;SDS011;53333;51.976;20.144;2023-04-06T04:46:08;43.75;;;23.58;;
36663;SDS011;53333;51.976;20.144;2023-04-06T04:48:45;45.88;;;23.00;;
36663;SDS011;53333;51.976;20.144;2023-04-06T04:51:18;44.45;;;23.25;;
36663;SDS011;53333;51.976;20.144;2023-04-06T04:54:03;46.33;;;23.17;;
36663;SDS011;53333;51.976;20.144;2023-04-06T04:56:37;41.53;;;21.38;;
36663;SDS011;53333;51.976;20.144;2023-04-06T04:59:21;32.15;;;18.38;;
36663;SDS011;53333;51.976;20.144;2023-04-06T05:02:01;36.90;;;18.55;;
36663;SDS011;53333;51.976;20.144;2023-04-06T05:04:45;37.05;;;18.65;;
36663;SDS011;53333;51.976;20.144;2023-04-06T05:07:24;38.45;;;17.88;;
36663;SDS011;53333;51.976;20.144;2023-04-06T05:09:59;36.58;;;17.75;;
36663;SDS011;53333;51.976;20.144;2023-04-06T05:12:37;34.80;;;16.95;;
36663;SDS011;53333;51.976;20.144;2023-04-06T05:15:12;32.13;;;16.58;;
36663;SDS011;53333;51.976;20.144;2023-04-06T05:17:46;29.60;;;16.20;;
36663;SDS011;53333;51.976;20.144;2023-04-06T05:20:25;33.38;;;16.73;;
36663;SDS011;53333;51.976;20.144;2023-04-06T05:22:59;28.83;;;16.15;;
36663;SDS011;53333;51.976;20.144;2023-04-06T05:25:32;31.27;;;14.95;;
36663;SDS011;53333;51.976;20.144;2023-04-06T05:28:15;28.95;;;14.80;;
36663;SDS011;53333;51.976;20.144;2023-04-06T05:30:48;27.45;;;14.85;;
36663;SDS011;53333;51.976;20.144;2023-04-06T05:33:22;27.30;;;14.45;;
36663;SDS011;53333;51.976;20.144;2023-04-06T05:36:06;29.17;;;14.63;;
36663;SDS011;53333;51.976;20.144;2023-04-06T05:38:44;25.42;;;13.88;;
36663;SDS011;53333;51.976;20.144;2023-04-06T05:41:34;25.70;;;13.23;;
36663;SDS011;53333;51.976;20.144;2023-04-06T05:44:07;24.55;;;13.30;;
36663;SDS011;53333;51.976;20.144;2023-04-06T05:46:40;23.00;;;13.47;;
36663;SDS011;53333;51.976;20.144;2023-04-06T05:49:17;22.77;;;12.73;;
36663;SDS011;53333;51.976;20.144;2023-04-06T05:51:52;20.73;;;12.18;;
36663;SDS011;53333;51.976;20.144;2023-04-06T05:54:25;20.88;;;11.90;;
36663;SDS011;53333;51.976;20.144;2023-04-06T05:57:03;22.08;;;11.98;;
36663;SDS011;53333;51.976;20.144;2023-04-06T05:59:37;18.55;;;10.90;;
36663;SDS011;53333;51.976;20.144;2023-04-06T06:02:10;16.30;;;10.23;;
36663;SDS011;53333;51.976;20.144;2023-04-06T06:04:47;22.30;;;10.45;;
36663;SDS011;53333;51.976;20.144;2023-04-06T06:07:23;19.83;;;9.45;;
36663;SDS011;53333;51.976;20.144;2023-04-06T06:10:04;18.50;;;8.35;;
36663;SDS011;53333;51.976;20.144;2023-04-06T06:12:40;16.48;;;8.15;;
36663;SDS011;53333;51.976;20.144;2023-04-06T06:15:13;12.90;;;7.55;;
36663;SDS011;53333;51.976;20.144;2023-04-06T06:17:50;14.93;;;7.00;;
36663;SDS011;53333;51.976;20.144;2023-04-06T06:20:23;13.38;;;6.95;;
36663;SDS011;53333;51.976;20.144;2023-04-06T06:22:57;8.98;;;6.70;;
36663;SDS011;53333;51.976;20.144;2023-04-06T06:25:32;8.60;;;6.82;;
36663;SDS011;53333;51.976;20.144;2023-04-06T06:28:06;12.05;;;7.47;;
36663;SDS011;53333;51.976;20.144;2023-04-06T06:30:40;13.35;;;6.78;;
36663;SDS011;53333;51.976;20.144;2023-04-06T06:33:13;18.98;;;11.18;;
36663;SDS011;53333;51.976;20.144;2023-04-06T06:35:47;31.67;;;13.10;;
36663;SDS011;53333;51.976;20.144;2023-04-06T06:38:22;27.45;;;11.85;;
36663;SDS011;53333;51.976;20.144;2023-04-06T06:40:55;9.18;;;5.95;;
36663;SDS011;53333;51.976;20.144;2023-04-06T06:43:31;14.38;;;6.45;;
36663;SDS011;53333;51.976;20.144;2023-04-06T06:46:11;9.77;;;5.85;;
36663;SDS011;53333;51.976;20.144;2023-04-06T06:48:45;10.88;;;6.03;;
36663;SDS011;53333;51.976;20.144;2023-04-06T06:51:18;12.10;;;6.33;;
36663;SDS011;53333;51.976;20.144;2023-04-06T06:53:52;12.45;;;6.30;;
36663;SDS011;53333;51.976;20.144;2023-04-06T06:56:25;8.00;;;5.50;;
36663;SDS011;53333;51.976;20.144;2023-04-06T06:58:59;12.02;;;5.88;;
36663;SDS011;53333;51.976;20.144;2023-04-06T07:01:32;11.17;;;5.43;;
36663;SDS011;53333;51.976;20.144;2023-04-06T07:04:06;11.77;;;6.10;;
36663;SDS011;53333;51.976;20.144;2023-04-06T07:06:43;10.98;;;5.72;;
36663;SDS011;53333;51.976;20.144;2023-04-06T07:09:20;8.07;;;5.45;;
36663;SDS011;53333;51.976;20.144;2023-04-06T07:12:03;10.55;;;4.93;;
36663;SDS011;53333;51.976;20.144;2023-04-06T07:14:36;10.95;;;5.03;;
36663;SDS011;53333;51.976;20.144;2023-04-06T07:17:12;10.18;;;5.60;;
36663;SDS011;53333;51.976;20.144;2023-04-06T07:19:45;6.68;;;4.65;;
36663;SDS011;53333;51.976;20.144;2023-04-06T07:22:18;9.63;;;4.93;;
36663;SDS011;53333;51.976;20.144;2023-04-06T07:24:52;7.33;;;5.60;;
36663;SDS011;53333;51.976;20.144;2023-04-06T07:27:26;12.07;;;4.60;;
36663;SDS011;53333;51.976;20.144;2023-04-06T07:29:59;9.57;;;4.38;;
36663;SDS011;53333;51.976;20.144;2023-04-06T07:32:34;7.20;;;4.33;;
36663;SDS011;53333;51.976;20.144;2023-04-06T07:35:08;9.07;;;4.78;;
36663;SDS011;53333;51.976;20.144;2023-04-06T07:37:41;6.93;;;4.53;;
36663;SDS011;53333;51.976;20.144;2023-04-06T07:40:16;12.13;;;4.63;;
36663;SDS011;53333;51.976;20.144;2023-04-06T07:42:49;4.38;;;3.53;;
36663;SDS011;53333;51.976;20.144;2023-04-06T07:45:23;8.23;;;4.28;;
36663;SDS011;53333;51.976;20.144;2023-04-06T07:47:57;7.90;;;4.40;;
36663;SDS011;53333;51.976;20.144;2023-04-06T07:50:31;7.10;;;3.88;;
36663;SDS011;53333;51.976;20.144;2023-04-06T07:53:04;5.45;;;4.22;;
36663;SDS011;53333;51.976;20.144;2023-04-06T07:55:40;7.45;;;4.20;;
36663;SDS011;53333;51.976;20.144;2023-04-06T07:58:13;10.98;;;3.60;;
36663;SDS011;53333;51.976;20.144;2023-04-06T08:00:48;4.32;;;3.45;;
36663;SDS011;53333;51.976;20.144;2023-04-06T08:03:21;9.07;;;3.53;;
36663;SDS011;53333;51.976;20.144;2023-04-06T08:05:57;9.02;;;3.90;;
36663;SDS011;53333;51.976;20.144;2023-04-06T08:08:30;5.40;;;2.90;;
36663;SDS011;53333;51.976;20.144;2023-04-06T08:11:04;12.18;;;3.90;;
36663;SDS011;53333;51.976;20.144;2023-04-06T08:13:37;5.28;;;3.58;;
36663;SDS011;53333;51.976;20.144;2023-04-06T08:16:10;10.75;;;4.22;;
36663;SDS011;53333;51.976;20.144;2023-04-06T08:18:45;4.97;;;4.15;;
36663;SDS011;53333;51.976;20.144;2023-04-06T08:21:18;11.13;;;3.50;;
36663;SDS011;53333;51.976;20.144;2023-04-06T08:23:51;6.20;;;3.10;;
36663;SDS011;53333;51.976;20.144;2023-04-06T08:26:25;8.30;;;3.75;;
36663;SDS011;53333;51.976;20.144;2023-04-06T08:28:59;6.22;;;3.38;;
36663;SDS011;53333;51.976;20.144;2023-04-06T08:31:32;8.50;;;3.27;;
36663;SDS011;53333;51.976;20.144;2023-04-06T08:34:05;6.00;;;2.80;;
36663;SDS011;53333;51.976;20.144;2023-04-06T08:36:41;7.00;;;3.10;;
36663;SDS011;53333;51.976;20.144;2023-04-06T08:39:14;7.00;;;3.37;;
36663;SDS011;53333;51.976;20.144;2023-04-06T08:41:49;10.77;;;4.20;;
36663;SDS011;53333;51.976;20.144;2023-04-06T08:44:23;5.05;;;3.50;;
36663;SDS011;53333;51.976;20.144;2023-04-06T08:46:56;7.20;;;4.32;;
36663;SDS011;53333;51.976;20.144;2023-04-06T08:49:31;7.82;;;3.85;;
36663;SDS011;53333;51.976;20.144;2023-04-06T08:54:38;7.22;;;3.28;;
36663;SDS011;53333;51.976;20.144;2023-04-06T08:57:12;6.27;;;3.80;;
36663;SDS011;53333;51.976;20.144;2023-04-06T08:59:46;8.65;;;4.50;;
36663;SDS011;53333;51.976;20.144;2023-04-06T09:02:19;7.30;;;4.40;;
36663;SDS011;53333;51.976;20.144;2023-04-06T09:04:53;6.15;;;3.92;;
36663;SDS011;53333;51.976;20.144;2023-04-06T09:07:26;79.82;;;36.40;;
36663;SDS011;53333;51.976;20.144;2023-04-06T09:12:34;7.40;;;5.13;;
36663;SDS011;53333;51.976;20.144;2023-04-06T09:15:17;5.32;;;3.53;;
36663;SDS011;53333;51.976;20.144;2023-04-06T09:17:54;8.60;;;3.60;;
36663;SDS011;53333;51.976;20.144;2023-04-06T09:20:27;5.20;;;3.70;;
36663;SDS011;53333;51.976;20.144;2023-04-06T09:25:33;9.18;;;3.47;;
36663;SDS011;53333;51.976;20.144;2023-04-06T09:28:07;4.67;;;3.40;;
36663;SDS011;53333;51.976;20.144;2023-04-06T09:30:47;5.95;;;3.65;;
36663;SDS011;53333;51.976;20.144;2023-04-06T09:33:24;12.75;;;6.13;;
36663;SDS011;53333;51.976;20.144;2023-04-06T09:36:10;6.50;;;3.97;;
36663;SDS011;53333;51.976;20.144;2023-04-06T09:38:53;7.85;;;3.97;;
36663;SDS011;53333;51.976;20.144;2023-04-06T09:41:27;7.20;;;3.63;;
36663;SDS011;53333;51.976;20.144;2023-04-06T09:44:03;7.53;;;4.13;;
36663;SDS011;53333;51.976;20.144;2023-04-06T09:46:37;6.63;;;4.75;;
36663;SDS011;53333;51.976;20.144;2023-04-06T09:49:30;6.47;;;4.00;;
36663;SDS011;53333;51.976;20.144;2023-04-06T09:52:03;12.75;;;5.15;;
36663;SDS011;53333;51.976;20.144;2023-04-06T09:54:42;7.20;;;4.25;;
36663;SDS011;53333;51.976;20.144;2023-04-06T09:57:20;7.78;;;4.30;;
36663;SDS011;53333;51.976;20.144;2023-04-06T10:00:03;5.38;;;4.07;;
36663;SDS011;53333;51.976;20.144;2023-04-06T10:02:44;6.68;;;4.20;;
36663;SDS011;53333;51.976;20.144;2023-04-06T10:08:24;8.75;;;3.47;;
36663;SDS011;53333;51.976;20.144;2023-04-06T10:11:03;8.23;;;4.68;;
36663;SDS011;53333;51.976;20.144;2023-04-06T10:13:42;7.55;;;3.70;;
36663;SDS011;53333;51.976;20.144;2023-04-06T10:16:16;8.73;;;4.55;;
36663;SDS011;53333;51.976;20.144;2023-04-06T10:18:50;13.48;;;3.88;;
36663;SDS011;53333;51.976;20.144;2023-04-06T10:21:26;7.97;;;3.85;;
36663;SDS011;53333;51.976;20.144;2023-04-06T10:24:02;8.55;;;4.70;;
36663;SDS011;53333;51.976;20.144;2023-04-06T10:26:42;7.15;;;3.92;;
36663;SDS011;53333;51.976;20.144;2023-04-06T10:29:15;6.57;;;3.88;;
36663;SDS011;53333;51.976;20.144;2023-04-06T10:31:49;8.90;;;4.20;;
36663;SDS011;53333;51.976;20.144;2023-04-06T10:34:22;6.25;;;4.78;;
36663;SDS011;53333;51.976;20.144;2023-04-06T10:36:55;5.33;;;3.60;;
36663;SDS011;53333;51.976;20.144;2023-04-06T10:39:28;13.77;;;4.53;;
36663;SDS011;53333;51.976;20.144;2023-04-06T10:42:06;10.80;;;5.47;;
36663;SDS011;53333;51.976;20.144;2023-04-06T10:44:41;5.50;;;3.88;;
36663;SDS011;53333;51.976;20.144;2023-04-06T10:47:17;5.80;;;3.80;;
36663;SDS011;53333;51.976;20.144;2023-04-06T10:49:50;8.18;;;4.32;;
36663;SDS011;53333;51.976;20.144;2023-04-06T10:52:23;6.80;;;4.10;;
36663;SDS011;53333;51.976;20.144;2023-04-06T10:54:56;8.57;;;4.40;;
36663;SDS011;53333;51.976;20.144;2023-04-06T10:57:29;8.43;;;4.10;;
36663;SDS011;53333;51.976;20.144;2023-04-06T11:00:04;7.35;;;5.20;;
36663;SDS011;53333;51.976;20.144;2023-04-06T11:02:41;6.70;;;4.47;;
36663;SDS011;53333;51.976;20.144;2023-04-06T11:05:14;6.75;;;4.40;;
36663;SDS011;53333;51.976;20.144;2023-04-06T11:07:48;5.75;;;3.42;;
36663;SDS011;53333;51.976;20.144;2023-04-06T11:10:21;6.40;;;3.60;;
36663;SDS011;53333;51.976;20.144;2023-04-06T11:12:54;5.75;;;4.47;;
36663;SDS011;53333;51.976;20.144;2023-04-06T11:15:33;8.80;;;4.38;;
36663;SDS011;53333;51.976;20.144;2023-04-06T11:18:16;5.47;;;4.10;;
36663;SDS011;53333;51.976;20.144;2023-04-06T11:20:50;6.68;;;4.78;;
36663;SDS011;53333;51.976;20.144;2023-04-06T11:23:23;4.50;;;4.05;;
36663;SDS011;53333;51.976;20.144;2023-04-06T11:25:57;6.93;;;4.18;;
36663;SDS011;53333;51.976;20.144;2023-04-06T11:28:30;5.95;;;4.70;;
36663;SDS011;53333;51.976;20.144;2023-04-06T11:31:03;8.35;;;4.70;;
36663;SDS011;53333;51.976;20.144;2023-04-06T11:33:37;8.70;;;5.20;;
36663;SDS011;53333;51.976;20.144;2023-04-06T11:36:11;7.43;;;5.25;;
36663;SDS011;53333;51.976;20.144;2023-04-06T11:38:47;42.85;;;24.95;;
36663;SDS011;53333;51.976;20.144;2023-04-06T11:41:22;12.13;;;7.50;;
36663;SDS011;53333;51.976;20.144;2023-04-06T11:43:56;9.23;;;4.95;;
36663;SDS011;53333;51.976;20.144;2023-04-06T11:46:29;10.87;;;5.30;;
36663;SDS011;53333;51.976;20.144;2023-04-06T11:49:03;7.05;;;4.82;;
36663;SDS011;53333;51.976;20.144;2023-04-06T11:51:36;8.35;;;5.85;;
36663;SDS011;53333;51.976;20.144;2023-04-06T11:54:09;22.77;;;12.57;;
36663;SDS011;53333;51.976;20.144;2023-04-06T11:56:45;25.25;;;13.98;;
36663;SDS011;53333;51.976;20.144;2023-04-06T11:59:18;9.20;;;5.25;;
36663;SDS011;53333;51.976;20.144;2023-04-06T12:01:52;7.43;;;5.43;;
36663;SDS011;53333;51.976;20.144;2023-04-06T12:04:27;7.32;;;5.30;;
36663;SDS011;53333;51.976;20.144;2023-04-06T12:07:00;8.85;;;5.20;;
36663;SDS011;53333;51.976;20.144;2023-04-06T12:09:33;9.20;;;5.32;;
36663;SDS011;53333;51.976;20.144;2023-04-06T12:12:07;7.70;;;5.70;;
36663;SDS011;53333;51.976;20.144;2023-04-06T12:14:41;8.00;;;5.65;;
36663;SDS011;53333;51.976;20.144;2023-04-06T12:17:14;11.07;;;6.17;;
36663;SDS011;53333;51.976;20.144;2023-04-06T12:19:48;8.17;;;6.17;;
36663;SDS011;53333;51.976;20.144;2023-04-06T12:22:21;9.05;;;5.45;;
36663;SDS011;53333;51.976;20.144;2023-04-06T12:24:59;10.80;;;6.53;;
36663;SDS011;53333;51.976;20.144;2023-04-06T12:27:32;9.53;;;5.87;;
36663;SDS011;53333;51.976;20.144;2023-04-06T12:30:05;7.00;;;5.18;;
36663;SDS011;53333;51.976;20.144;2023-04-06T12:32:39;9.45;;;6.60;;
36663;SDS011;53333;51.976;20.144;2023-04-06T12:35:14;9.32;;;6.45;;
36663;SDS011;53333;51.976;20.144;2023-04-06T12:37:47;52.65;;;22.80;;
36663;SDS011;53333;51.976;20.144;2023-04-06T12:40:21;10.13;;;6.95;;
36663;SDS011;53333;51.976;20.144;2023-04-06T12:42:54;9.00;;;6.87;;
36663;SDS011;53333;51.976;20.144;2023-04-06T12:45:27;7.32;;;6.35;;
36663;SDS011;53333;51.976;20.144;2023-04-06T12:48:00;8.17;;;6.70;;
36663;SDS011;53333;51.976;20.144;2023-04-06T12:50:34;12.75;;;7.10;;
36663;SDS011;53333;51.976;20.144;2023-04-06T12:53:08;11.85;;;7.55;;
36663;SDS011;53333;51.976;20.144;2023-04-06T12:55:41;9.23;;;7.05;;
36663;SDS011;53333;51.976;20.144;2023-04-06T12:58:13;9.38;;;7.20;;
36663;SDS011;53333;51.976;20.144;2023-04-06T13:00:48;11.13;;;8.15;;
36663;SDS011;53333;51.976;20.144;2023-04-06T13:03:22;10.38;;;7.55;;
36663;SDS011;53333;51.976;20.144;2023-04-06T13:05:58;9.05;;;7.55;;
36663;SDS011;53333;51.976;20.144;2023-04-06T13:08:32;13.05;;;7.65;;
36663;SDS011;53333;51.976;20.144;2023-04-06T13:11:05;11.63;;;7.50;;
36663;SDS011;53333;51.976;20.144;2023-04-06T13:13:40;11.05;;;7.32;;
36663;SDS011;53333;51.976;20.144;2023-04-06T13:16:13;10.47;;;7.30;;
36663;SDS011;53333;51.976;20.144;2023-04-06T13:18:46;9.77;;;7.55;;
36663;SDS011;53333;51.976;20.144;2023-04-06T13:21:21;10.37;;;7.83;;
36663;SDS011;53333;51.976;20.144;2023-04-06T13:23:54;11.82;;;8.15;;
36663;SDS011;53333;51.976;20.144;2023-04-06T13:26:27;11.60;;;7.17;;
36663;SDS011;53333;51.976;20.144;2023-04-06T13:29:00;11.35;;;8.45;;
36663;SDS011;53333;51.976;20.144;2023-04-06T13:31:33;14.98;;;9.43;;
36663;SDS011;53333;51.976;20.144;2023-04-06T13:34:06;10.83;;;8.13;;
36663;SDS011;53333;51.976;20.144;2023-04-06T13:36:45;13.55;;;8.70;;
36663;SDS011;53333;51.976;20.144;2023-04-06T13:39:18;11.30;;;7.22;;
36663;SDS011;53333;51.976;20.144;2023-04-06T13:41:53;11.20;;;8.27;;
36663;SDS011;53333;51.976;20.144;2023-04-06T13:44:29;12.43;;;8.52;;
36663;SDS011;53333;51.976;20.144;2023-04-06T13:47:03;10.57;;;8.17;;
36663;SDS011;53333;51.976;20.144;2023-04-06T13:49:35;13.17;;;8.43;;
36663;SDS011;53333;51.976;20.144;2023-04-06T13:52:10;10.93;;;7.90;;
36663;SDS011;53333;51.976;20.144;2023-04-06T13:54:43;13.25;;;8.73;;
36663;SDS011;53333;51.976;20.144;2023-04-06T13:57:16;14.55;;;9.10;;
36663;SDS011;53333;51.976;20.144;2023-04-06T13:59:49;15.95;;;10.23;;
36663;SDS011;53333;51.976;20.144;2023-04-06T14:02:22;15.43;;;10.15;;
36663;SDS011;53333;51.976;20.144;2023-04-06T14:04:58;21.90;;;11.50;;
36663;SDS011;53333;51.976;20.144;2023-04-06T14:07:33;14.57;;;9.65;;
36663;SDS011;53333;51.976;20.144;2023-04-06T14:10:06;17.35;;;9.95;;
36663;SDS011;53333;51.976;20.144;2023-04-06T14:12:45;17.17;;;11.13;;
36663;SDS011;53333;51.976;20.144;2023-04-06T14:15:18;18.10;;;12.45;;
36663;SDS011;53333;51.976;20.144;2023-04-06T14:17:53;26.42;;;14.00;;
36663;SDS011;53333;51.976;20.144;2023-04-06T14:20:26;14.60;;;8.90;;
36663;SDS011;53333;51.976;20.144;2023-04-06T14:23:01;13.82;;;9.45;;
36663;SDS011;53333;51.976;20.144;2023-04-06T14:25:35;14.23;;;9.60;;
36663;SDS011;53333;51.976;20.144;2023-04-06T14:28:08;14.82;;;9.43;;
36663;SDS011;53333;51.976;20.144;2023-04-06T14:30:41;17.00;;;10.13;;
36663;SDS011;53333;51.976;20.144;2023-04-06T14:33:14;21.67;;;10.50;;
36663;SDS011;53333;51.976;20.144;2023-04-06T14:35:47;17.40;;;9.50;;
36663;SDS011;53333;51.976;20.144;2023-04-06T14:38:21;16.20;;;10.55;;
36663;SDS011;53333;51.976;20.144;2023-04-06T14:40:54;16.50;;;10.07;;
36663;SDS011;53333;51.976;20.144;2023-04-06T14:43:27;16.35;;;10.70;;
36663;SDS011;53333;51.976;20.144;2023-04-06T14:46:00;22.55;;;10.10;;
36663;SDS011;53333;51.976;20.144;2023-04-06T14:48:34;16.67;;;10.95;;
36663;SDS011;53333;51.976;20.144;2023-04-06T14:51:07;18.35;;;10.13;;
36663;SDS011;53333;51.976;20.144;2023-04-06T14:53:41;16.77;;;11.05;;
36663;SDS011;53333;51.976;20.144;2023-04-06T14:56:18;15.02;;;10.82;;
36663;SDS011;53333;51.976;20.144;2023-04-06T14:58:52;17.40;;;11.32;;
36663;SDS011;53333;51.976;20.144;2023-04-06T15:01:26;16.13;;;11.45;;
36663;SDS011;53333;51.976;20.144;2023-04-06T15:04:02;17.20;;;11.93;;
36663;SDS011;53333;51.976;20.144;2023-04-06T15:06:37;17.60;;;12.00;;
36663;SDS011;53333;51.976;20.144;2023-04-06T15:09:11;29.58;;;18.63;;
36663;SDS011;53333;51.976;20.144;2023-04-06T15:11:45;17.35;;;11.18;;
36663;SDS011;53333;51.976;20.144;2023-04-06T15:14:19;21.55;;;11.35;;
36663;SDS011;53333;51.976;20.144;2023-04-06T15:16:51;19.70;;;10.82;;
36663;SDS011;53333;51.976;20.144;2023-04-06T15:19:24;19.83;;;11.98;;